Time,TemperatureF,DewpointF,PressureIn,WindDirection,WindDirectionDegrees,WindSpeedMPH,WindSpeedGustMPH,Humidity,HourlyPrecipIn,Conditions,Clouds,dailyrainin,SoftwareType,DateUTC
2013-03-12 00:00:00,33.5,29.5,29.84,WNW,293,11.0,11.0,85,0.00,CLR,,0.06,WeatherDisplay:10.37,2013-03-12 05:00:00,
2013-03-12 00:05:00,33.5,29.2,29.84,WNW,297,18.4,18.4,84,0.00,CLR,,0.06,WeatherDisplay:10.37,2013-03-12 05:05:00,
2013-03-12 00:10:00,33.4,29.1,29.84,West,277,11.5,11.5,84,0.00,CLR,,0.06,WeatherDisplay:10.37,2013-03-12 05:10:00,
2013-03-12 00:15:00,33.4,29.1,29.84,WNW,296,12.7,12.7,84,0.00,CLR,,0.06,WeatherDisplay:10.37,2013-03-12 05:15:00,
2013-03-12 00:20:00,33.4,29.1,29.84,West,266,8.0,18.0,84,0.00,CLR,,0.06,WeatherDisplay:10.37,2013-03-12 05:20:00,
2013-03-12 00:25:00,33.3,29.0,29.84,WNW,285,10.4,10.4,84,0.00,CLR,,0.06,WeatherDisplay:10.37,2013-03-12 05:25:00,
2013-03-12 00:30:00,33.3,29.0,29.84,West,269,10.4,10.4,84,0.00,CLR,,0.06,WeatherDisplay:10.37,2013-03-12 05:30:00,
2013-03-12 00:35:00,33.2,28.9,29.84,West,276,11.5,11.5,84,0.00,CLR,,0.06,WeatherDisplay:10.37,2013-03-12 05:35:00,
2013-03-12 00:40:00,33.2,28.9,29.84,WNW,302,12.7,12.7,84,0.00,CLR,,0.06,WeatherDisplay:10.37,2013-03-12 05:40:00,
2013-03-12 00:45:00,33.2,28.9,29.84,West,281,4.6,4.9,84,0.00,CLR,,0.06,WeatherDisplay:10.37,2013-03-12 05:45:00,
2013-03-12 00:50:00,33.2,28.9,29.84,WSW,240,16.1,16.1,84,0.00,CLR,,0.06,WeatherDisplay:10.37,2013-03-12 05:50:00,
2013-03-12 00:55:00,33.2,28.9,29.84,West,280,15.0,15.0,84,0.00,CLR,,0.06,WeatherDisplay:10.37,2013-03-12 05:55:00,
2013-03-12 01:00:00,33.1,28.8,29.84,WNW,292,13.8,13.8,84,0.00,CLR,,0.06,WeatherDisplay:10.37,2013-03-12 06:00:00,
2013-03-12 01:05:00,33.1,28.8,29.85,WNW,300,11.5,11.5,84,0.00,RA,,0.00,WeatherDisplay:10.37,2013-03-12 06:05:00,
2013-03-12 01:10:00,33.0,28.7,29.85,WNW,296,11.5,11.5,84,0.00,RA,,0.00,WeatherDisplay:10.37,2013-03-12 06:10:00,
2013-03-12 01:15:00,33.0,28.7,29.85,NW,306,15.0,15.0,84,0.00,CLR,,0.00,WeatherDisplay:10.37,2013-03-12 06:15:00,
2013-03-12 01:20:00,33.0,28.4,29.85,SW,234,12.7,12.7,83,0.00,CLR,,0.00,WeatherDisplay:10.37,2013-03-12 06:20:00,
2013-03-12 01:25:00,32.9,28.3,29.85,West,263,6.0,22.0,83,0.00,CLR,,0.00,WeatherDisplay:10.37,2013-03-12 06:25:00,
2013-03-12 01:30:00,32.9,28.3,29.85,WNW,292,15.0,15.0,83,0.00,CLR,,0.00,WeatherDisplay:10.37,2013-03-12 06:30:00,
2013-03-12 01:35:00,32.9,28.3,29.86,WNW,290,10.4,10.4,83,0.00,CLR,,0.00,WeatherDisplay:10.37,2013-03-12 06:35:00,
2013-03-12 01:40:00,32.8,28.2,29.85,West,260,18.4,18.4,83,0.00,CLR,,0.00,WeatherDisplay:10.37,2013-03-12 06:40:00,
2013-03-12 01:45:00,32.8,27.9,29.86,NW,324,15.0,15.0,82,0.00,CLR,,0.00,WeatherDisplay:10.37,2013-03-12 06:45:00,
2013-03-12 01:51:00,32.8,27.9,29.86,West,281,6.9,6.9,82,0.00,CLR,,0.00,WeatherDisplay:10.37,2013-03-12 06:51:00,
2013-03-12 01:56:00,32.8,28.2,29.86,WSW,246,11.5,11.5,83,0.00,CLR,,0.00,WeatherDisplay:10.37,2013-03-12 06:56:00,
2013-03-12 02:01:00,32.8,28.2,29.86,SSE,156,15.0,15.0,83,0.00,CLR,,0.00,WeatherDisplay:10.37,2013-03-12 07:01:00,
2013-03-12 02:06:00,32.8,28.2,29.86,WNW,296,10.4,10.4,83,0.00,CLR,,0.00,WeatherDisplay:10.37,2013-03-12 07:06:00,
2013-03-12 02:11:00,32.7,28.1,29.87,WSW,254,24.2,24.2,83,0.00,CLR,,0.00,WeatherDisplay:10.37,2013-03-12 07:11:00,
2013-03-12 02:16:00,32.7,28.1,29.87,West,281,15.0,15.0,83,0.00,CLR,,0.00,WeatherDisplay:10.37,2013-03-12 07:16:00,
2013-03-12 02:22:00,32.7,28.1,29.87,WSW,248,12.7,12.7,83,0.00,CLR,,0.00,WeatherDisplay:10.37,2013-03-12 07:22:00,
2013-03-12 02:27:00,32.7,28.1,29.87,South,169,11.5,11.5,83,0.00,CLR,,0.00,WeatherDisplay:10.37,2013-03-12 07:27:00,
2013-03-12 02:32:00,32.7,28.1,29.87,SW,233,5.8,5.8,83,0.00,CLR,,0.00,WeatherDisplay:10.37,2013-03-12 07:32:00,
2013-03-12 02:37:00,32.6,28.0,29.87,WSW,248,11.5,11.5,83,0.00,CLR,,0.00,WeatherDisplay:10.37,2013-03-12 07:37:00,
2013-03-12 02:42:00,32.6,28.0,29.87,SSW,194,10.4,10.4,83,0.00,CLR,,0.00,WeatherDisplay:10.37,2013-03-12 07:42:00,
2013-03-12 02:47:00,32.6,28.0,29.86,WNW,289,11.5,11.5,83,0.00,CLR,,0.00,WeatherDisplay:10.37,2013-03-12 07:47:00,
2013-03-12 02:52:00,32.6,28.0,29.86,WNW,282,6.9,6.9,83,0.00,CLR,,0.00,WeatherDisplay:10.37,2013-03-12 07:52:00,
2013-03-12 02:57:00,32.6,28.3,29.87,WNW,298,11.5,11.5,84,0.00,CLR,,0.00,WeatherDisplay:10.37,2013-03-12 07:57:00,
2013-03-12 03:02:00,32.5,28.2,29.87,WNW,294,13.8,13.8,84,0.00,CLR,,0.00,WeatherDisplay:10.37,2013-03-12 08:02:00,
2013-03-12 03:07:00,32.5,27.9,29.87,WNW,282,14.0,14.0,83,0.00,CLR,,0.00,WeatherDisplay:10.37,2013-03-12 08:07:00,
2013-03-12 03:12:00,32.5,27.9,29.87,WNW,284,19.6,19.6,83,0.00,CLR,,0.00,WeatherDisplay:10.37,2013-03-12 08:12:00,
2013-03-12 03:17:00,32.4,27.8,29.87,West,281,16.1,16.1,83,0.00,CLR,,0.00,WeatherDisplay:10.37,2013-03-12 08:17:00,
2013-03-12 03:22:00,32.4,27.8,29.87,WNW,289,17.3,17.3,83,0.00,CLR,,0.00,WeatherDisplay:10.37,2013-03-12 08:22:00,
2013-03-12 03:27:00,32.3,27.7,29.87,West,275,11.5,11.5,83,0.00,CLR,,0.00,WeatherDisplay:10.37,2013-03-12 08:27:00,
2013-03-12 03:33:00,32.3,27.7,29.86,WNW,284,8.1,8.1,83,0.00,CLR,,0.00,WeatherDisplay:10.37,2013-03-12 08:33:00,
2013-03-12 03:38:00,32.3,27.7,29.86,WNW,282,13.0,13.0,83,0.00,CLR,,0.00,WeatherDisplay:10.37,2013-03-12 08:38:00,
2013-03-12 03:43:00,32.2,27.6,29.86,WSW,256,12.7,12.7,83,0.00,CLR,,0.00,WeatherDisplay:10.37,2013-03-12 08:43:00,
2013-03-12 03:48:00,32.2,27.6,29.86,West,281,11.0,11.0,83,0.00,CLR,,0.00,WeatherDisplay:10.37,2013-03-12 08:48:00,
2013-03-12 03:53:00,32.2,27.9,29.86,SW,232,15.0,15.0,84,0.00,CLR,,0.00,WeatherDisplay:10.37,2013-03-12 08:53:00,
2013-03-12 03:58:00,32.2,27.9,29.86,WNW,289,5.8,8.2,84,0.00,CLR,,0.00,WeatherDisplay:10.37,2013-03-12 08:58:00,
2013-03-12 04:03:00,32.2,27.9,29.86,WNW,294,10.4,10.4,84,0.00,CLR,,0.00,WeatherDisplay:10.37,2013-03-12 09:03:00,
2013-03-12 04:08:00,32.1,27.8,29.86,West,269,10.4,10.4,84,0.00,CLR,,0.00,WeatherDisplay:10.37,2013-03-12 09:08:00,
2013-03-12 04:14:00,32.1,27.5,29.87,SSW,200,11.5,11.5,83,0.00,CLR,,0.00,WeatherDisplay:10.37,2013-03-12 09:14:00,
2013-03-12 04:19:00,32.1,27.5,29.86,WNW,299,10.4,10.4,83,0.00,CLR,,0.00,WeatherDisplay:10.37,2013-03-12 09:19:00,
2013-03-12 04:24:00,32.1,27.5,29.86,SW,230,12.7,12.7,83,0.00,CLR,,0.00,WeatherDisplay:10.37,2013-03-12 09:24:00,
2013-03-12 04:29:00,32.0,26.8,29.87,WSW,248,11.5,11.5,81,0.00,CLR,,0.00,WeatherDisplay:10.37,2013-03-12 09:29:00,
2013-03-12 04:34:00,31.9,26.7,29.86,NW,304,12.7,12.7,81,0.00,CLR,,0.00,WeatherDisplay:10.37,2013-03-12 09:34:00,
2013-03-12 04:39:00,31.9,26.4,29.86,SW,227,12.7,12.7,80,0.00,CLR,,0.00,WeatherDisplay:10.37,2013-03-12 09:39:00,
2013-03-12 04:44:00,31.8,26.3,29.87,West,265,13.8,13.8,80,0.00,CLR,,0.00,WeatherDisplay:10.37,2013-03-12 09:44:00,
2013-03-12 04:49:00,31.8,26.3,29.87,SSW,195,4.6,4.6,80,0.00,CLR,,0.00,WeatherDisplay:10.37,2013-03-12 09:49:00,
2013-03-12 04:54:00,31.8,26.3,29.87,West,271,11.5,11.5,80,0.00,CLR,,0.00,WeatherDisplay:10.37,2013-03-12 09:54:00,
2013-03-12 04:59:00,31.7,26.5,29.87,West,263,5.8,5.8,81,0.00,CLR,,0.00,WeatherDisplay:10.37,2013-03-12 09:59:00,
2013-03-12 05:04:00,31.7,26.5,29.87,WNW,286,6.9,6.9,81,0.00,CLR,,0.00,WeatherDisplay:10.37,2013-03-12 10:04:00,
2013-03-12 05:09:00,31.7,26.5,29.88,WNW,289,18.4,18.4,81,0.00,CLR,,0.00,WeatherDisplay:10.37,2013-03-12 10:09:00,
2013-03-12 05:14:00,31.6,26.4,29.88,WSW,252,11.5,11.5,81,0.00,CLR,,0.00,WeatherDisplay:10.37,2013-03-12 10:14:00,
2013-03-12 05:20:00,31.5,26.0,29.88,WNW,301,11.5,11.5,80,0.00,CLR,,0.00,WeatherDisplay:10.37,2013-03-12 10:20:00,
2013-03-12 05:25:00,31.4,25.6,29.88,West,276,10.0,17.0,79,0.00,CLR,,0.00,WeatherDisplay:10.37,2013-03-12 10:25:00,
2013-03-12 05:30:00,31.3,25.5,29.88,SW,232,11.5,11.5,79,0.00,CLR,,0.00,WeatherDisplay:10.37,2013-03-12 10:30:00,
2013-03-12 05:35:00,31.2,25.4,29.89,WSW,251,18.4,18.4,79,0.00,CLR,,0.00,WeatherDisplay:10.37,2013-03-12 10:35:00,
2013-03-12 05:40:00,31.2,25.4,29.89,WSW,238,12.7,12.7,79,0.00,CLR,,0.00,WeatherDisplay:10.37,2013-03-12 10:40:00,
2013-03-12 05:45:00,31.1,25.0,29.88,SSW,202,11.5,11.5,78,0.00,CLR,,0.00,WeatherDisplay:10.37,2013-03-12 10:45:00,
2013-03-12 05:50:00,31.1,24.7,29.89,West,263,10.4,10.4,77,0.00,CLR,,0.00,WeatherDisplay:10.37,2013-03-12 10:50:00,
2013-03-12 05:55:00,31.1,24.7,29.89,WSW,250,8.1,8.1,77,0.00,CLR,,0.00,WeatherDisplay:10.37,2013-03-12 10:55:00,
2013-03-12 06:00:00,31.0,24.3,29.89,West,265,18.4,18.4,76,0.00,CLR,,0.00,WeatherDisplay:10.37,2013-03-12 11:00:00,
2013-03-12 06:05:00,31.0,24.0,29.90,WNW,284,17.0,17.0,75,0.00,CLR,,0.00,WeatherDisplay:10.37,2013-03-12 11:05:00,
2013-03-12 06:10:00,31.0,23.7,29.90,WNW,293,18.0,18.0,74,0.00,CLR,,0.00,WeatherDisplay:10.37,2013-03-12 11:10:00,
2013-03-12 06:15:00,31.0,24.0,29.91,West,280,21.0,21.0,75,0.00,CLR,,0.00,WeatherDisplay:10.37,2013-03-12 11:15:00,
2013-03-12 06:20:00,31.1,23.8,29.90,West,263,13.8,13.8,74,0.00,CLR,,0.00,WeatherDisplay:10.37,2013-03-12 11:20:00,
2013-03-12 06:25:00,31.0,23.7,29.91,WSW,250,21.9,21.9,74,0.00,CLR,,0.00,WeatherDisplay:10.37,2013-03-12 11:25:00,
2013-03-12 06:30:00,31.0,23.7,29.91,WNW,290,15.0,15.0,74,0.00,CLR,,0.00,WeatherDisplay:10.37,2013-03-12 11:30:00,
2013-03-12 06:35:00,31.0,23.4,29.91,West,280,14.0,21.0,73,0.00,CLR,,0.00,WeatherDisplay:10.37,2013-03-12 11:35:00,
2013-03-12 06:40:00,31.0,23.7,29.91,WNW,303,12.7,12.7,74,0.00,CLR,,0.00,WeatherDisplay:10.37,2013-03-12 11:40:00,
2013-03-12 06:45:00,30.9,23.6,29.91,WNW,285,12.7,12.7,74,0.00,CLR,,0.00,WeatherDisplay:10.37,2013-03-12 11:45:00,
2013-03-12 06:50:00,30.8,23.5,29.91,West,263,13.8,13.8,74,0.00,CLR,,0.00,WeatherDisplay:10.37,2013-03-12 11:50:00,
2013-03-12 06:55:00,30.8,23.8,29.91,West,278,14.0,14.0,75,0.00,CLR,,0.00,WeatherDisplay:10.37,2013-03-12 11:55:00,
2013-03-12 07:00:00,30.8,23.8,29.91,West,279,15.0,15.0,75,0.00,CLR,,0.00,WeatherDisplay:10.37,2013-03-12 12:00:00,
2013-03-12 07:05:00,30.8,23.8,29.91,WNW,294,13.8,13.8,75,0.00,CLR,,0.00,WeatherDisplay:10.37,2013-03-12 12:05:00,
2013-03-12 07:10:00,30.8,24.1,29.91,WNW,286,13.8,13.8,76,0.00,CLR,,0.00,WeatherDisplay:10.37,2013-03-12 12:10:00,
2013-03-12 07:15:00,30.7,24.0,29.91,WNW,284,12.0,12.0,76,0.00,CLR,,0.00,WeatherDisplay:10.37,2013-03-12 12:15:00,
2013-03-12 07:20:00,30.7,24.3,29.91,WNW,294,11.5,11.5,77,0.00,CLR,,0.00,WeatherDisplay:10.37,2013-03-12 12:20:00,
2013-03-12 07:25:00,30.7,24.3,29.92,WNW,294,9.2,9.2,77,0.00,CLR,,0.00,WeatherDisplay:10.37,2013-03-12 12:25:00,
2013-03-12 07:30:00,30.7,24.7,29.92,WNW,287,6.9,6.9,78,0.00,CLR,,0.00,WeatherDisplay:10.37,2013-03-12 12:30:00,
2013-03-12 07:36:00,30.7,24.7,29.92,WNW,287,13.8,13.8,78,0.00,CLR,,0.00,WeatherDisplay:10.37,2013-03-12 12:36:00,
2013-03-12 07:41:00,30.6,24.9,29.92,SW,230,21.9,21.9,79,0.00,CLR,,0.00,WeatherDisplay:10.37,2013-03-12 12:41:00,
2013-03-12 07:46:00,30.5,24.5,29.92,WSW,244,12.7,12.7,78,0.00,CLR,,0.00,WeatherDisplay:10.37,2013-03-12 12:46:00,
2013-03-12 07:51:00,30.5,24.1,29.92,WNW,294,15.0,15.0,77,0.00,CLR,,0.00,WeatherDisplay:10.37,2013-03-12 12:51:00,
2013-03-12 07:56:00,30.4,24.1,29.92,SW,233,7.0,7.0,77,0.00,CLR,,0.00,WeatherDisplay:10.37,2013-03-12 12:56:00,
2013-03-12 08:01:00,30.3,24.0,29.92,WNW,292,11.0,11.0,77,0.00,CLR,,0.00,WeatherDisplay:10.37,2013-03-12 13:01:00,
2013-03-12 08:06:00,30.4,24.1,29.92,West,281,5.8,5.8,77,0.00,CLR,,0.00,WeatherDisplay:10.37,2013-03-12 13:06:00,
2013-03-12 08:11:00,30.5,24.1,29.91,NW,311,13.8,13.8,77,0.00,CLR,,0.00,WeatherDisplay:10.37,2013-03-12 13:11:00,
2013-03-12 08:16:00,30.5,24.1,29.91,WNW,294,11.0,11.0,77,0.00,CLR,,0.00,WeatherDisplay:10.37,2013-03-12 13:16:00,
2013-03-12 08:21:00,30.6,24.2,29.91,SW,223,12.7,12.7,77,0.00,CLR,,0.00,WeatherDisplay:10.37,2013-03-12 13:21:00,
2013-03-12 08:27:00,30.7,24.0,29.91,WNW,283,13.8,13.8,76,0.00,CLR,,0.00,WeatherDisplay:10.37,2013-03-12 13:27:00,
2013-03-12 08:32:00,30.6,23.9,29.92,WSW,250,6.9,6.9,76,0.00,CLR,,0.00,WeatherDisplay:10.37,2013-03-12 13:32:00,
2013-03-12 08:37:00,30.6,24.2,29.91,West,278,12.7,12.7,77,0.00,CLR,,0.00,WeatherDisplay:10.37,2013-03-12 13:37:00,
2013-03-12 08:42:00,30.7,24.3,29.92,WSW,241,11.5,11.5,77,0.00,CLR,,0.00,WeatherDisplay:10.37,2013-03-12 13:42:00,
2013-03-12 08:47:00,30.7,24.7,29.93,WNW,286,6.9,6.9,78,0.00,CLR,,0.00,WeatherDisplay:10.37,2013-03-12 13:47:00,
2013-03-12 08:52:00,30.7,24.7,29.93,SW,236,13.8,13.8,78,0.00,CLR,,0.00,WeatherDisplay:10.37,2013-03-12 13:52:00,
2013-03-12 08:58:00,30.7,24.7,29.94,SW,236,9.0,9.0,78,0.00,CLR,,0.00,WeatherDisplay:10.37,2013-03-12 13:58:00,
2013-03-12 09:03:00,30.5,24.1,29.95,WNW,299,12.0,12.0,77,0.00,CLR,,0.00,WeatherDisplay:10.37,2013-03-12 14:03:00,
2013-03-12 09:08:00,30.6,24.6,29.94,SW,222,11.5,11.5,78,0.00,CLR,,0.00,WeatherDisplay:10.37,2013-03-12 14:08:00,
2013-03-12 09:13:00,30.7,24.7,29.95,West,272,12.7,12.7,78,0.00,CLR,,0.00,WeatherDisplay:10.37,2013-03-12 14:13:00,
2013-03-12 09:18:00,30.8,24.4,29.94,WNW,290,11.5,11.5,77,0.00,CLR,,0.00,WeatherDisplay:10.37,2013-03-12 14:18:00,
2013-03-12 09:23:00,30.8,24.4,29.94,NNW,333,10.4,10.4,77,0.00,CLR,,0.00,WeatherDisplay:10.37,2013-03-12 14:23:00,
2013-03-12 09:28:00,31.1,24.7,29.95,West,270,10.4,10.4,77,0.00,CLR,,0.00,WeatherDisplay:10.37,2013-03-12 14:28:00,
2013-03-12 09:33:00,31.5,25.1,29.95,WSW,247,15.0,15.0,77,0.00,CLR,,0.00,WeatherDisplay:10.37,2013-03-12 14:33:00,
2013-03-12 09:38:00,31.9,25.2,29.95,WSW,247,12.7,12.7,76,0.00,CLR,,0.00,WeatherDisplay:10.37,2013-03-12 14:38:00,
2013-03-12 09:43:00,32.3,25.3,29.95,SSW,203,11.5,11.5,75,0.00,CLR,,0.00,WeatherDisplay:10.37,2013-03-12 14:43:00,
2013-03-12 09:48:00,32.3,25.3,29.95,SW,232,16.1,16.1,75,0.00,CLR,,0.00,WeatherDisplay:10.37,2013-03-12 14:48:00,
2013-03-12 09:53:00,31.9,24.6,29.95,SW,227,13.8,13.8,74,0.00,CLR,,0.00,WeatherDisplay:10.37,2013-03-12 14:53:00,
2013-03-12 09:58:00,32.2,25.2,29.95,West,271,13.8,13.8,75,0.00,CLR,,0.00,WeatherDisplay:10.37,2013-03-12 14:58:00,
2013-03-12 10:03:00,32.8,25.4,29.96,SW,221,19.6,19.6,74,0.00,CLR,,0.00,WeatherDisplay:10.37,2013-03-12 15:03:00,
2013-03-12 10:08:00,32.6,24.9,29.95,South,180,17.3,17.3,73,0.00,CLR,,0.00,WeatherDisplay:10.37,2013-03-12 15:08:00,
2013-03-12 10:13:00,32.8,25.1,29.95,SW,231,19.6,19.6,73,0.00,CLR,,0.00,WeatherDisplay:10.37,2013-03-12 15:13:00,
2013-03-12 10:18:00,33.3,25.6,29.95,SW,227,13.8,13.8,73,0.00,CLR,,0.00,WeatherDisplay:10.37,2013-03-12 15:18:00,
2013-03-12 10:23:00,33.4,25.0,29.96,SW,231,17.0,17.0,71,0.00,CLR,,0.00,WeatherDisplay:10.37,2013-03-12 15:23:00,
2013-03-12 10:28:00,33.0,24.6,29.96,SW,232,18.4,18.4,71,0.00,CLR,,0.00,WeatherDisplay:10.37,2013-03-12 15:28:00,
2013-03-12 10:33:00,33.0,25.0,29.97,SW,227,12.0,12.0,72,0.00,CLR,,0.00,WeatherDisplay:10.37,2013-03-12 15:33:00,
2013-03-12 10:38:00,33.0,25.0,29.96,SW,218,20.7,20.7,72,0.00,CLR,,0.00,WeatherDisplay:10.37,2013-03-12 15:38:00,
2013-03-12 10:43:00,33.1,25.1,29.96,SW,232,15.0,15.0,72,0.00,CLR,,0.00,WeatherDisplay:10.37,2013-03-12 15:43:00,
2013-03-12 10:48:00,33.2,25.1,29.97,SW,229,17.0,17.0,72,0.00,CLR,,0.00,WeatherDisplay:10.37,2013-03-12 15:48:00,
2013-03-12 10:53:00,33.7,25.3,29.96,West,275,5.8,5.8,71,0.00,CLR,,0.00,WeatherDisplay:10.37,2013-03-12 15:53:00,
2013-03-12 10:58:00,33.9,25.5,29.96,SW,231,18.4,18.4,71,0.00,CLR,,0.00,WeatherDisplay:10.37,2013-03-12 15:58:00,
2013-03-12 11:03:00,33.9,25.1,29.95,WSW,237,18.4,18.4,70,0.00,CLR,,0.00,WeatherDisplay:10.37,2013-03-12 16:03:00,
2013-03-12 11:08:00,34.0,25.2,29.95,WSW,242,6.0,6.0,70,0.00,CLR,,0.00,WeatherDisplay:10.37,2013-03-12 16:08:00,
2013-03-12 11:13:00,34.7,25.6,29.94,SW,234,8.1,9.5,69,0.00,CLR,,0.00,WeatherDisplay:10.37,2013-03-12 16:13:00,
2013-03-12 11:18:00,34.7,24.9,29.94,SSW,206,7.0,7.0,67,0.00,CLR,,0.00,WeatherDisplay:10.37,2013-03-12 16:18:00,
2013-03-12 11:23:00,34.7,24.5,29.94,WSW,238,19.6,19.6,66,0.00,CLR,,0.00,WeatherDisplay:10.37,2013-03-12 16:23:00,
2013-03-12 11:28:00,34.5,24.7,29.94,WSW,245,12.7,12.7,67,0.00,CLR,,0.00,WeatherDisplay:10.37,2013-03-12 16:28:00,
2013-03-12 11:33:00,35.0,25.1,29.94,SW,225,15.0,15.0,67,0.00,CLR,,0.00,WeatherDisplay:10.37,2013-03-12 16:33:00,
2013-03-12 11:39:00,35.0,24.0,29.95,WSW,238,19.6,19.6,64,0.00,CLR,,0.00,WeatherDisplay:10.37,2013-03-12 16:39:00,
2013-03-12 11:44:00,35.3,24.7,29.95,SSW,208,5.8,5.8,65,0.00,CLR,,0.00,WeatherDisplay:10.37,2013-03-12 16:44:00,
2013-03-12 11:49:00,36.1,25.5,29.95,West,270,21.9,21.9,65,0.00,CLR,,0.00,WeatherDisplay:10.37,2013-03-12 16:49:00,
2013-03-12 11:54:00,36.6,25.6,29.95,SW,223,11.5,11.5,64,0.00,CLR,,0.00,WeatherDisplay:10.37,2013-03-12 16:54:00,
2013-03-12 11:59:00,36.9,25.5,29.95,SSW,204,17.3,17.3,63,0.00,CLR,,0.00,WeatherDisplay:10.37,2013-03-12 16:59:00,
2013-03-12 12:04:00,36.5,24.7,29.95,WNW,283,19.6,19.6,62,0.00,CLR,,0.00,WeatherDisplay:10.37,2013-03-12 17:04:00,
2013-03-12 12:09:00,36.7,24.1,29.95,WSW,237,18.4,18.4,60,0.00,CLR,,0.00,WeatherDisplay:10.37,2013-03-12 17:09:00,
2013-03-12 12:14:00,37.2,24.6,29.95,WNW,287,11.0,11.0,60,0.00,CLR,,0.00,WeatherDisplay:10.37,2013-03-12 17:14:00,
2013-03-12 12:19:00,37.7,25.5,29.95,WSW,238,14.0,14.0,61,0.00,CLR,,0.00,WeatherDisplay:10.37,2013-03-12 17:19:00,
2013-03-12 12:24:00,38.1,25.0,29.95,NW,310,10.4,10.4,59,0.00,CLR,,0.00,WeatherDisplay:10.37,2013-03-12 17:24:00,
2013-03-12 12:29:00,38.3,25.6,29.94,NNW,333,15.0,15.0,60,0.00,CLR,,0.00,WeatherDisplay:10.37,2013-03-12 17:29:00,
2013-03-12 12:34:00,38.3,26.0,29.95,South,173,19.6,19.6,61,0.00,CLR,,0.00,WeatherDisplay:10.37,2013-03-12 17:34:00,
2013-03-12 12:39:00,38.3,26.0,29.95,WSW,243,16.1,16.1,61,0.00,CLR,,0.00,WeatherDisplay:10.37,2013-03-12 17:39:00,
2013-03-12 12:44:00,38.5,25.4,29.95,West,273,18.4,18.4,59,0.00,CLR,,0.00,WeatherDisplay:10.37,2013-03-12 17:44:00,
2013-03-12 12:49:00,38.3,24.8,29.96,WNW,297,24.0,24.0,58,0.00,CLR,,0.00,WeatherDisplay:10.37,2013-03-12 17:49:00,
2013-03-12 12:54:00,37.8,25.5,29.95,SW,232,15.0,15.0,61,0.00,CLR,,0.00,WeatherDisplay:10.37,2013-03-12 17:54:00,
2013-03-12 12:59:00,38.3,26.0,29.95,SSW,211,20.7,20.7,61,0.00,CLR,,0.00,WeatherDisplay:10.37,2013-03-12 17:59:00,
2013-03-12 13:04:00,38.5,26.2,29.95,SW,233,24.2,24.2,61,0.00,CLR,,0.00,WeatherDisplay:10.37,2013-03-12 18:04:00,
2013-03-12 13:09:00,37.9,26.4,29.95,WNW,294,20.7,20.7,63,0.00,CLR,,0.00,WeatherDisplay:10.37,2013-03-12 18:09:00,
2013-03-12 13:14:00,37.8,26.7,29.95,SW,227,11.5,11.5,64,0.00,CLR,,0.00,WeatherDisplay:10.37,2013-03-12 18:14:00,
2013-03-12 13:19:00,38.0,26.9,29.95,WNW,296,18.4,18.4,64,0.00,CLR,,0.00,WeatherDisplay:10.37,2013-03-12 18:19:00,
2013-03-12 13:25:00,38.0,26.9,29.95,WSW,240,18.4,18.4,64,0.00,CLR,,0.00,WeatherDisplay:10.37,2013-03-12 18:25:00,
2013-03-12 13:30:00,38.2,27.1,29.95,WNW,288,14.0,14.0,64,0.00,CLR,,0.00,WeatherDisplay:10.37,2013-03-12 18:30:00,
2013-03-12 13:35:00,38.6,27.1,29.94,WSW,253,23.0,23.0,63,0.00,CLR,,0.00,WeatherDisplay:10.37,2013-03-12 18:35:00,
2013-03-12 13:40:00,38.8,27.3,29.94,SSE,151,15.0,15.0,63,0.00,CLR,,0.00,WeatherDisplay:10.37,2013-03-12 18:40:00,
2013-03-12 13:45:00,39.0,27.1,29.94,SW,221,12.7,12.7,62,0.00,CLR,,0.00,WeatherDisplay:10.37,2013-03-12 18:45:00,
2013-03-12 13:50:00,39.3,27.7,29.94,SSW,213,15.0,15.0,63,0.00,CLR,,0.00,WeatherDisplay:10.37,2013-03-12 18:50:00,
2013-03-12 13:55:00,39.5,27.9,29.94,SW,223,20.7,20.7,63,0.00,CLR,,0.00,WeatherDisplay:10.37,2013-03-12 18:55:00,
2013-03-12 14:00:00,39.7,27.7,29.94,WSW,238,23.0,23.0,62,0.00,CLR,,0.00,WeatherDisplay:10.37,2013-03-12 19:00:00,
2013-03-12 14:05:00,39.8,27.4,29.94,NW,321,15.0,15.0,61,0.00,CLR,,0.00,WeatherDisplay:10.37,2013-03-12 19:05:00,
2013-03-12 14:10:00,39.6,27.6,29.94,NW,304,26.5,26.5,62,0.00,CLR,,0.00,WeatherDisplay:10.37,2013-03-12 19:10:00,
2013-03-12 14:15:00,39.3,27.4,29.94,WSW,242,23.0,23.0,62,0.00,CLR,,0.00,WeatherDisplay:10.37,2013-03-12 19:15:00,
2013-03-12 14:20:00,39.4,27.8,29.94,SW,221,10.4,10.4,63,0.00,CLR,,0.00,WeatherDisplay:10.37,2013-03-12 19:20:00,
2013-03-12 14:25:00,39.7,28.1,29.94,SW,236,13.8,13.8,63,0.00,CLR,,0.00,WeatherDisplay:10.37,2013-03-12 19:25:00,
2013-03-12 14:30:00,40.2,28.2,29.94,WNW,290,15.0,15.0,62,0.00,CLR,,0.00,WeatherDisplay:10.37,2013-03-12 19:30:00,
2013-03-12 14:35:00,39.8,27.8,29.93,South,184,21.0,21.0,62,0.00,CLR,,0.00,WeatherDisplay:10.37,2013-03-12 19:35:00,
2013-03-12 14:40:00,39.8,28.2,29.93,SW,217,13.8,13.8,63,0.00,CLR,,0.00,WeatherDisplay:10.37,2013-03-12 19:40:00,
2013-03-12 14:45:00,39.6,28.0,29.93,WNW,285,25.3,25.3,63,0.00,CLR,,0.00,WeatherDisplay:10.37,2013-03-12 19:45:00,
2013-03-12 14:50:00,39.7,28.1,29.94,WNW,284,21.9,21.9,63,0.00,CLR,,0.00,WeatherDisplay:10.37,2013-03-12 19:50:00,
2013-03-12 14:55:00,39.5,27.9,29.94,WSW,250,19.6,19.6,63,0.00,CLR,,0.00,WeatherDisplay:10.37,2013-03-12 19:55:00,
2013-03-12 15:00:00,39.5,27.9,29.94,WSW,253,17.3,17.3,63,0.00,CLR,,0.00,WeatherDisplay:10.37,2013-03-12 20:00:00,
2013-03-12 15:05:00,39.5,27.9,29.94,WSW,244,21.9,21.9,63,0.00,CLR,,0.00,WeatherDisplay:10.37,2013-03-12 20:05:00,
2013-03-12 15:10:00,39.6,28.0,29.93,WNW,290,17.3,17.3,63,0.00,CLR,,0.00,WeatherDisplay:10.37,2013-03-12 20:10:00,
2013-03-12 15:15:00,39.7,28.5,29.93,SW,236,11.5,11.5,64,0.00,CLR,,0.00,WeatherDisplay:10.37,2013-03-12 20:15:00,
2013-03-12 15:20:00,39.6,28.0,29.93,WNW,294,20.0,20.0,63,0.00,CLR,,0.00,WeatherDisplay:10.37,2013-03-12 20:20:00,
2013-03-12 15:25:00,39.6,28.4,29.93,WNW,286,12.7,12.7,64,0.00,CLR,,0.00,WeatherDisplay:10.37,2013-03-12 20:25:00,
2013-03-12 15:30:00,39.9,28.7,29.93,SW,232,15.0,15.0,64,0.00,CLR,,0.00,WeatherDisplay:10.37,2013-03-12 20:30:00,
2013-03-12 15:35:00,40.4,28.0,29.93,SSW,211,15.0,15.0,61,0.00,CLR,,0.00,WeatherDisplay:10.37,2013-03-12 20:35:00,
2013-03-12 15:40:00,40.8,28.4,29.93,SSW,202,12.7,12.7,61,0.00,CLR,,0.00,WeatherDisplay:10.37,2013-03-12 20:40:00,
2013-03-12 15:45:00,40.7,28.7,29.93,NW,312,20.0,20.0,62,0.00,CLR,,0.00,WeatherDisplay:10.37,2013-03-12 20:45:00,
2013-03-12 15:50:00,39.8,28.2,29.94,WNW,294,23.0,23.0,63,0.00,CLR,,0.00,WeatherDisplay:10.37,2013-03-12 20:50:00,
2013-03-12 15:55:00,39.6,28.4,29.94,West,275,13.8,13.8,64,0.00,CLR,,0.00,WeatherDisplay:10.37,2013-03-12 20:55:00,
2013-03-12 16:00:00,39.8,28.6,29.94,WNW,288,19.6,19.6,64,0.00,CLR,,0.00,WeatherDisplay:10.37,2013-03-12 21:00:00,
2013-03-12 16:05:00,40.0,28.8,29.94,WNW,290,9.2,9.2,64,0.00,CLR,,0.00,WeatherDisplay:10.37,2013-03-12 21:05:00,
2013-03-12 16:10:00,40.3,29.1,29.93,SW,233,15.0,15.0,64,0.00,CLR,,0.00,WeatherDisplay:10.37,2013-03-12 21:10:00,
2013-03-12 16:15:00,40.6,29.0,29.93,SW,227,21.9,21.9,63,0.00,CLR,,0.00,WeatherDisplay:10.37,2013-03-12 21:15:00,
2013-03-12 16:20:00,40.9,28.9,29.93,WSW,257,16.1,16.1,62,0.00,CLR,,0.00,WeatherDisplay:10.37,2013-03-12 21:20:00,
2013-03-12 16:25:00,41.0,29.0,29.93,SW,236,13.0,13.0,62,0.00,CLR,,0.00,WeatherDisplay:10.37,2013-03-12 21:25:00,
2013-03-12 16:30:00,41.0,28.6,29.92,SSW,198,12.7,12.7,61,0.00,CLR,,0.00,WeatherDisplay:10.37,2013-03-12 21:30:00,
2013-03-12 16:36:00,41.0,29.0,29.92,SW,215,9.2,9.2,62,0.00,CLR,,0.00,WeatherDisplay:10.37,2013-03-12 21:36:00,
2013-03-12 16:41:00,41.0,29.0,29.92,SW,236,20.7,20.7,62,0.00,CLR,,0.00,WeatherDisplay:10.37,2013-03-12 21:41:00,
2013-03-12 16:47:00,40.9,29.3,29.92,SW,234,19.6,19.6,63,0.00,CLR,,0.00,WeatherDisplay:10.37,2013-03-12 21:47:00,
2013-03-12 16:52:00,40.9,29.7,29.92,SW,232,15.0,15.0,64,0.00,CLR,,0.00,WeatherDisplay:10.37,2013-03-12 21:52:00,
2013-03-12 16:57:00,41.0,29.7,29.93,ENE,57,19.6,19.6,64,0.00,CLR,,0.00,WeatherDisplay:10.37,2013-03-12 21:57:00,
2013-03-12 17:02:00,40.0,30.6,29.93,WNW,298,31.1,31.1,69,0.00,CLR,,0.00,WeatherDisplay:10.37,2013-03-12 22:02:00,
2013-03-12 17:08:00,37.6,31.4,29.94,WNW,282,15.0,15.0,78,0.00,CLR,,0.00,WeatherDisplay:10.37,2013-03-12 22:08:00,
2013-03-12 17:13:00,35.6,30.9,29.94,SSW,196,15.0,15.0,83,0.00,CLR,,0.00,WeatherDisplay:10.37,2013-03-12 22:13:00,
2013-03-12 17:18:00,35.1,31.3,29.94,SW,215,9.2,9.2,86,0.00,CLR,,0.00,WeatherDisplay:10.37,2013-03-12 22:18:00,
2013-03-12 17:23:00,35.1,31.9,29.94,WSW,246,4.6,4.6,88,0.01,RA,,0.01,WeatherDisplay:10.37,2013-03-12 22:23:00,
2013-03-12 17:28:00,35.3,32.4,29.94,SW,218,6.0,6.0,89,0.02,RA,,0.02,WeatherDisplay:10.37,2013-03-12 22:28:00,
2013-03-12 17:33:00,35.4,32.5,29.94,WNW,282,13.8,13.8,89,0.02,RA,,0.02,WeatherDisplay:10.37,2013-03-12 22:33:00,
2013-03-12 17:38:00,35.7,33.1,29.94,WNW,298,16.1,16.1,90,0.02,CLR,,0.02,WeatherDisplay:10.37,2013-03-12 22:38:00,
2013-03-12 17:43:00,35.9,33.0,29.94,WNW,302,11.5,11.5,89,0.02,CLR,,0.02,WeatherDisplay:10.37,2013-03-12 22:43:00,
2013-03-12 17:48:00,36.2,33.3,29.95,West,261,6.9,6.9,89,0.02,CLR,,0.02,WeatherDisplay:10.37,2013-03-12 22:48:00,
2013-03-12 17:53:00,35.7,32.5,29.95,West,271,25.3,25.3,88,0.02,CLR,,0.02,WeatherDisplay:10.37,2013-03-12 22:53:00,
2013-03-12 17:58:00,35.1,31.9,29.95,West,281,18.4,18.4,88,0.03,RA,,0.03,WeatherDisplay:10.37,2013-03-12 22:58:00,
2013-03-12 18:03:00,34.8,31.6,29.95,WNW,301,17.3,17.3,88,0.03,RA,,0.03,WeatherDisplay:10.37,2013-03-12 23:03:00,
2013-03-12 18:08:00,34.8,31.6,29.95,WSW,241,13.8,13.8,88,0.03,,,0.03,WeatherDisplay:10.37,2013-03-12 23:08:00,
2013-03-12 18:13:00,34.8,31.6,29.95,WSW,237,13.8,13.8,88,0.03,CLR,,0.03,WeatherDisplay:10.37,2013-03-12 23:13:00,
2013-03-12 18:18:00,35.0,31.8,29.95,West,280,16.0,16.0,88,0.03,CLR,,0.03,WeatherDisplay:10.37,2013-03-12 23:18:00,
2013-03-12 18:23:00,35.1,31.6,29.95,West,276,17.3,17.3,87,0.02,CLR,,0.03,WeatherDisplay:10.37,2013-03-12 23:23:00,
2013-03-12 18:28:00,35.3,31.8,29.95,West,279,17.3,17.3,87,0.01,CLR,,0.03,WeatherDisplay:10.37,2013-03-12 23:28:00,
2013-03-12 18:33:00,35.5,32.0,29.96,WNW,283,12.0,12.0,87,0.01,CLR,,0.03,WeatherDisplay:10.37,2013-03-12 23:33:00,
2013-03-12 18:38:00,35.7,31.9,29.96,West,273,12.7,12.7,86,0.01,CLR,,0.03,WeatherDisplay:10.37,2013-03-12 23:38:00,
2013-03-12 18:43:00,35.9,31.5,29.96,NNE,26,19.6,19.6,84,0.01,CLR,,0.03,WeatherDisplay:10.37,2013-03-12 23:43:00,
2013-03-12 18:49:00,36.0,31.6,29.96,WNW,292,19.6,19.6,84,0.01,CLR,,0.03,WeatherDisplay:10.37,2013-03-12 23:49:00,
2013-03-12 18:54:00,36.0,31.3,29.96,West,281,15.0,15.0,83,0.01,CLR,,0.03,WeatherDisplay:10.37,2013-03-12 23:54:00,
2013-03-12 18:59:00,35.9,31.2,29.96,NW,305,11.0,11.0,83,0.01,CLR,,0.03,WeatherDisplay:10.37,2013-03-12 23:59:00,
2013-03-12 19:04:00,35.9,31.2,29.97,WNW,288,16.1,16.1,83,0.00,CLR,,0.03,WeatherDisplay:10.37,2013-03-13 00:04:00,
2013-03-12 19:09:00,35.8,31.1,29.97,West,280,10.4,10.4,83,0.00,CLR,,0.03,WeatherDisplay:10.37,2013-03-13 00:09:00,
2013-03-12 19:14:00,35.7,31.0,29.97,WNW,288,12.0,12.0,83,0.00,CLR,,0.03,WeatherDisplay:10.37,2013-03-13 00:14:00,
2013-03-12 19:19:00,35.7,31.0,29.97,WNW,297,12.0,12.0,83,0.00,CLR,,0.03,WeatherDisplay:10.37,2013-03-13 00:19:00,
2013-03-12 19:24:00,35.6,31.2,29.97,WNW,284,19.6,19.6,84,0.00,CLR,,0.03,WeatherDisplay:10.37,2013-03-13 00:24:00,
2013-03-12 19:29:00,35.5,30.8,29.97,WNW,294,16.1,16.1,83,0.00,CLR,,0.03,WeatherDisplay:10.37,2013-03-13 00:29:00,
2013-03-12 19:34:00,35.5,31.1,29.97,WSW,251,12.7,12.7,84,0.00,CLR,,0.03,WeatherDisplay:10.37,2013-03-13 00:34:00,
2013-03-12 19:39:00,35.4,31.0,29.97,WSW,249,17.0,17.0,84,0.00,CLR,,0.03,WeatherDisplay:10.37,2013-03-13 00:39:00,
2013-03-12 19:44:00,35.4,31.0,29.97,SW,223,5.8,5.8,84,0.00,CLR,,0.03,WeatherDisplay:10.37,2013-03-13 00:44:00,
2013-03-12 19:49:00,35.3,30.9,29.97,West,267,16.1,16.1,84,0.00,CLR,,0.03,WeatherDisplay:10.37,2013-03-13 00:49:00,
2013-03-12 19:54:00,35.2,30.9,29.97,West,267,10.4,10.4,84,0.00,CLR,,0.03,WeatherDisplay:10.37,2013-03-13 00:54:00,
2013-03-12 19:59:00,35.0,30.7,29.98,WNW,293,10.0,10.0,84,0.00,CLR,,0.03,WeatherDisplay:10.37,2013-03-13 00:59:00,
2013-03-12 20:04:00,34.9,30.6,29.98,West,281,12.7,12.7,84,0.00,CLR,,0.03,WeatherDisplay:10.37,2013-03-13 01:04:00,
2013-03-12 20:09:00,34.7,30.4,29.98,WNW,288,10.4,10.4,84,0.00,CLR,,0.03,WeatherDisplay:10.37,2013-03-13 01:09:00,
2013-03-12 20:14:00,34.7,30.4,29.98,WNW,290,11.5,11.5,84,0.00,CLR,,0.03,WeatherDisplay:10.37,2013-03-13 01:14:00,
2013-03-12 20:19:00,34.7,30.4,29.98,West,281,3.0,3.0,84,0.00,CLR,,0.03,WeatherDisplay:10.37,2013-03-13 01:19:00,
2013-03-12 20:24:00,34.7,30.4,29.98,SSW,197,13.8,13.8,84,0.00,CLR,,0.03,WeatherDisplay:10.37,2013-03-13 01:24:00,
2013-03-12 20:29:00,34.7,30.1,29.98,WSW,257,10.4,10.4,83,0.00,CLR,,0.03,WeatherDisplay:10.37,2013-03-13 01:29:00,
2013-03-12 20:35:00,34.6,30.3,29.98,WNW,285,18.4,18.4,84,0.00,CLR,,0.03,WeatherDisplay:10.37,2013-03-13 01:35:00,
2013-03-12 20:40:00,34.1,30.4,29.99,WNW,284,21.9,21.9,86,0.00,CLR,,0.03,WeatherDisplay:10.37,2013-03-13 01:40:00,
2013-03-12 20:45:00,34.2,30.2,29.99,WNW,284,17.3,17.3,85,0.00,CLR,,0.03,WeatherDisplay:10.37,2013-03-13 01:45:00,
2013-03-12 20:50:00,34.2,29.9,29.99,WSW,250,12.7,12.7,84,0.00,CLR,,0.03,WeatherDisplay:10.37,2013-03-13 01:50:00,
2013-03-12 20:55:00,34.2,29.9,29.99,WNW,289,11.5,11.5,84,0.00,CLR,,0.03,WeatherDisplay:10.37,2013-03-13 01:55:00,
2013-03-12 21:00:00,34.1,29.8,29.99,WNW,284,15.0,15.0,84,0.00,CLR,,0.03,WeatherDisplay:10.37,2013-03-13 02:00:00,
2013-03-12 21:05:00,34.1,29.8,29.99,SW,233,18.4,18.4,84,0.00,CLR,,0.03,WeatherDisplay:10.37,2013-03-13 02:05:00,
2013-03-12 21:10:00,34.2,29.9,29.99,WNW,286,11.5,11.5,84,0.00,CLR,,0.03,WeatherDisplay:10.37,2013-03-13 02:10:00,
2013-03-12 21:15:00,34.2,29.9,30.00,WNW,303,12.7,12.7,84,0.00,CLR,,0.03,WeatherDisplay:10.37,2013-03-13 02:15:00,
2013-03-12 21:20:00,34.2,29.9,30.00,WNW,284,13.8,13.8,84,0.00,CLR,,0.03,WeatherDisplay:10.37,2013-03-13 02:20:00,
2013-03-12 21:25:00,34.1,29.8,30.00,NW,304,18.4,18.4,84,0.00,CLR,,0.03,WeatherDisplay:10.37,2013-03-13 02:25:00,
2013-03-12 21:30:00,34.1,29.5,30.00,WNW,288,13.8,13.8,83,0.00,CLR,,0.03,WeatherDisplay:10.37,2013-03-13 02:30:00,
2013-03-12 21:35:00,34.2,29.0,30.00,West,275,24.2,24.2,81,0.00,CLR,,0.03,WeatherDisplay:10.37,2013-03-13 02:35:00,
2013-03-12 21:40:00,34.2,28.7,30.00,WNW,298,26.5,26.5,80,0.00,CLR,,0.03,WeatherDisplay:10.37,2013-03-13 02:40:00,
2013-03-12 21:45:00,34.2,28.7,30.00,West,279,18.0,18.0,80,0.00,CLR,,0.03,WeatherDisplay:10.37,2013-03-13 02:45:00,
2013-03-12 21:50:00,34.2,28.7,30.00,WNW,290,23.0,23.0,80,0.00,CLR,,0.03,WeatherDisplay:10.37,2013-03-13 02:50:00,
2013-03-12 21:55:00,34.1,28.6,30.00,West,279,22.0,22.0,80,0.00,CLR,,0.03,WeatherDisplay:10.37,2013-03-13 02:55:00,
2013-03-12 22:00:00,34.1,28.6,30.00,WNW,296,13.8,13.8,80,0.00,CLR,,0.03,WeatherDisplay:10.37,2013-03-13 03:00:00,
2013-03-12 22:05:00,34.0,28.5,29.99,West,279,13.8,13.8,80,0.00,CLR,,0.03,WeatherDisplay:10.37,2013-03-13 03:05:00,
2013-03-12 22:10:00,33.9,28.4,29.99,WNW,300,16.1,16.1,80,0.00,CLR,,0.03,WeatherDisplay:10.37,2013-03-13 03:10:00,
2013-03-12 22:15:00,33.9,28.7,29.99,WNW,288,15.0,15.0,81,0.00,CLR,,0.03,WeatherDisplay:10.37,2013-03-13 03:15:00,
2013-03-12 22:20:00,33.8,28.6,30.00,WNW,291,18.4,18.4,81,0.00,CLR,,0.03,WeatherDisplay:10.37,2013-03-13 03:20:00,
2013-03-12 22:25:00,33.5,28.6,30.00,WNW,286,24.2,24.2,82,0.00,CLR,,0.03,WeatherDisplay:10.37,2013-03-13 03:25:00,
2013-03-12 22:30:00,32.9,28.9,30.00,WSW,240,17.3,17.3,85,0.00,CLR,,0.03,WeatherDisplay:10.37,2013-03-13 03:30:00,
2013-03-12 22:35:00,32.1,28.9,30.01,West,277,19.6,19.6,88,0.00,CLR,,0.03,WeatherDisplay:10.37,2013-03-13 03:35:00,
2013-03-12 22:40:00,31.4,28.5,30.00,NW,304,12.7,12.7,89,0.00,CLR,,0.03,WeatherDisplay:10.37,2013-03-13 03:40:00,
2013-03-12 22:45:00,31.1,28.5,30.01,NW,305,13.8,13.8,90,0.00,CLR,,0.03,WeatherDisplay:10.37,2013-03-13 03:45:00,
2013-03-12 22:50:00,30.6,28.3,30.01,NW,307,21.9,21.9,91,0.00,CLR,,0.03,WeatherDisplay:10.37,2013-03-13 03:50:00,
2013-03-12 22:55:00,30.1,27.8,30.01,WNW,299,16.1,16.1,91,0.00,CLR,,0.03,WeatherDisplay:10.37,2013-03-13 03:55:00,
2013-03-12 23:00:00,30.0,27.7,30.01,WNW,299,18.4,18.4,91,0.00,CLR,,0.03,WeatherDisplay:10.37,2013-03-13 04:00:00,
2013-03-12 23:02:00,30.0,28.0,30.01,West,280,16.0,16.0,92,0.00,CLR,,0.03,WeatherDisplay:10.37,2013-03-13 04:02:00,
2013-03-12 23:07:00,30.1,28.1,30.01,WNW,295,19.0,19.0,92,0.00,CLR,,0.03,WeatherDisplay:10.37,2013-03-13 04:07:00,
2013-03-12 23:13:00,30.2,27.9,30.01,West,277,19.6,19.6,91,0.00,CLR,,0.03,WeatherDisplay:10.37,2013-03-13 04:13:00,
2013-03-12 23:18:00,30.2,27.6,30.02,WNW,292,21.9,21.9,90,0.00,CLR,,0.03,WeatherDisplay:10.37,2013-03-13 04:18:00,
2013-03-12 23:23:00,30.2,27.3,30.02,WNW,301,20.7,20.7,89,0.00,CLR,,0.03,WeatherDisplay:10.37,2013-03-13 04:23:00,
2013-03-12 23:28:00,30.1,26.7,30.02,WNW,299,20.0,20.0,87,0.00,CLR,,0.03,WeatherDisplay:10.37,2013-03-13 04:28:00,
2013-03-12 23:33:00,30.0,26.6,30.02,NW,306,22.0,22.0,87,0.00,CLR,,0.03,WeatherDisplay:10.37,2013-03-13 04:33:00,
2013-03-12 23:38:00,29.8,26.4,30.02,WNW,298,15.0,15.0,87,0.00,CLR,,0.03,WeatherDisplay:10.37,2013-03-13 04:38:00,
2013-03-12 23:43:00,29.6,25.6,30.02,WNW,288,23.0,23.0,85,0.00,CLR,,0.03,WeatherDisplay:10.37,2013-03-13 04:43:00,
2013-03-12 23:48:00,29.6,23.9,30.02,WNW,293,25.0,25.0,79,0.00,CLR,,0.03,WeatherDisplay:10.37,2013-03-13 04:48:00,
2013-03-12 23:53:00,29.5,22.6,30.02,West,276,28.8,28.8,75,0.00,CLR,,0.03,WeatherDisplay:10.37,2013-03-13 04:53:00,
2013-03-12 23:58:00,29.4,21.8,30.02,WSW,244,20.7,20.7,73,0.00,CLR,,0.03,WeatherDisplay:10.37,2013-03-13 04:58:00,